createdAt,value
2018-05-10T00:01:43.190Z,6.10
2018-05-10T00:04:09.397Z,5.63
2018-05-10T00:06:35.583Z,5.90
2018-05-10T00:09:02.526Z,6.23
2018-05-10T00:11:29.458Z,5.80
2018-05-10T00:13:56.407Z,6.40
2018-05-10T00:16:22.610Z,5.23
2018-05-10T00:18:48.787Z,6.27
2018-05-10T00:21:15.725Z,5.80
2018-05-10T00:23:41.901Z,5.80
2018-05-10T00:26:08.077Z,5.37
2018-05-10T00:28:34.268Z,5.80
2018-05-10T00:31:00.459Z,5.93
2018-05-10T00:33:26.666Z,5.87
2018-05-10T00:35:52.838Z,5.10
2018-05-10T00:38:19.781Z,5.10
2018-05-10T00:40:46.716Z,4.53
2018-05-10T00:43:14.482Z,5.17
2018-05-10T00:45:42.254Z,4.77
2018-05-10T00:48:08.385Z,5.30
2018-05-10T00:50:34.578Z,4.80
2018-05-10T00:53:00.753Z,4.57
2018-05-10T00:55:26.922Z,4.27
2018-05-10T00:57:53.265Z,4.07
2018-05-10T01:00:19.448Z,3.70
2018-05-10T01:02:45.792Z,3.37
2018-05-10T01:05:11.968Z,3.30
2018-05-10T01:07:38.142Z,4.00
2018-05-10T01:10:04.352Z,3.50
2018-05-10T01:12:30.526Z,3.13
2018-05-10T01:14:56.724Z,3.37
2018-05-10T01:17:22.905Z,3.07
2018-05-10T01:19:49.854Z,3.50
2018-05-10T01:22:16.792Z,3.40
2018-05-10T01:24:43.751Z,3.10
2018-05-10T01:27:10.678Z,3.43
2018-05-10T01:29:36.839Z,3.30
2018-05-10T01:32:03.771Z,3.20
2018-05-10T01:34:29.965Z,3.17
2018-05-10T01:36:56.155Z,3.30
2018-05-10T01:39:23.070Z,3.13
2018-05-10T01:41:49.294Z,3.23
2018-05-10T01:44:15.491Z,3.00
2018-05-10T01:46:41.674Z,3.37
2018-05-10T01:49:07.918Z,3.73
2018-05-10T01:51:34.116Z,3.17
2018-05-10T01:54:00.310Z,3.30
2018-05-10T01:56:27.245Z,3.23
2018-05-10T01:58:54.173Z,3.63
2018-05-10T02:01:20.381Z,3.03
2018-05-10T02:03:46.552Z,3.33
2018-05-10T02:06:12.728Z,3.57
2018-05-10T02:08:38.909Z,3.43
2018-05-10T02:11:05.112Z,3.20
2018-05-10T02:13:31.317Z,3.40
2018-05-10T02:15:57.511Z,3.90
2018-05-10T02:18:23.706Z,3.20
2018-05-10T02:20:49.887Z,3.67
2018-05-10T02:23:16.822Z,3.30
2018-05-10T02:25:43.035Z,3.63
2018-05-10T02:28:09.234Z,3.30
2018-05-10T02:30:35.445Z,3.60
2018-05-10T02:33:02.382Z,3.67
2018-05-10T02:35:29.315Z,3.60
2018-05-10T02:37:56.272Z,3.27
2018-05-10T02:40:23.223Z,3.50
2018-05-10T02:42:49.401Z,3.53
2018-05-10T02:45:15.603Z,3.50
2018-05-10T02:47:42.513Z,3.33
2018-05-10T02:50:08.741Z,3.73
2018-05-10T02:52:34.955Z,3.80
2018-05-10T02:55:01.129Z,4.00
2018-05-10T02:57:27.322Z,3.97
2018-05-10T02:59:53.520Z,4.07
2018-05-10T03:02:20.449Z,3.80
2018-05-10T03:04:48.117Z,3.63
2018-05-10T03:07:14.316Z,3.50
2018-05-10T03:09:40.506Z,3.83
2018-05-10T03:12:07.426Z,4.00
2018-05-10T03:14:33.620Z,4.27
2018-05-10T03:17:00.531Z,3.97
2018-05-10T03:19:27.454Z,4.20
2018-05-10T03:21:53.673Z,3.80
2018-05-10T03:24:20.652Z,4.07
2018-05-10T03:26:46.868Z,4.27
2018-05-10T03:29:13.055Z,4.37
2018-05-10T03:31:39.213Z,3.73
2018-05-10T03:34:05.406Z,3.73
2018-05-10T03:36:31.610Z,3.40
2018-05-10T03:38:57.821Z,3.77
2018-05-10T03:41:23.998Z,3.70
2018-05-10T03:43:50.919Z,3.60
2018-05-10T03:46:17.214Z,3.27
2018-05-10T03:48:44.097Z,3.10
2018-05-10T03:51:10.309Z,3.00
2018-05-10T03:53:36.485Z,3.07
2018-05-10T03:56:03.422Z,3.10
2018-05-10T03:58:30.842Z,2.57
2018-05-10T04:00:57.006Z,2.80
2018-05-10T04:06:36.244Z,3.30
2018-05-10T04:09:14.943Z,2.93
2018-05-10T04:11:41.126Z,2.93
2018-05-10T04:14:07.346Z,2.90
2018-05-10T04:16:34.269Z,3.50
2018-05-10T04:19:00.470Z,2.97
2018-05-10T04:21:26.654Z,2.50
2018-05-10T04:23:52.851Z,2.73
2018-05-10T04:26:19.054Z,2.90
2018-05-10T04:28:45.981Z,3.23
2018-05-10T04:31:12.898Z,2.80
2018-05-10T04:33:39.101Z,3.07
2018-05-10T04:36:05.274Z,3.00
2018-05-10T04:38:31.499Z,2.70
2018-05-10T04:40:57.689Z,2.53
2018-05-10T04:43:23.884Z,2.80
2018-05-10T04:45:50.082Z,2.80
2018-05-10T04:48:16.257Z,3.00
2018-05-10T04:50:43.193Z,2.50
2018-05-10T04:53:09.372Z,2.90
2018-05-10T04:55:35.554Z,2.70
2018-05-10T04:58:01.755Z,2.50
2018-05-10T05:00:27.963Z,2.60
2018-05-10T05:02:54.147Z,2.87
2018-05-10T05:05:20.338Z,2.80
2018-05-10T05:07:46.542Z,2.60
2018-05-10T05:10:13.466Z,2.90
2018-05-10T05:12:39.651Z,3.10
2018-05-10T05:15:05.841Z,2.57
2018-05-10T05:17:32.761Z,2.67
2018-05-10T05:19:58.965Z,2.93
2018-05-10T05:22:25.166Z,2.70
2018-05-10T05:24:52.135Z,2.70
2018-05-10T05:27:18.323Z,3.33
2018-05-10T05:29:44.511Z,2.97
2018-05-10T05:32:10.718Z,3.40
2018-05-10T05:34:36.942Z,3.10
2018-05-10T05:37:03.139Z,3.00
2018-05-10T05:39:29.327Z,3.20
2018-05-10T05:41:55.518Z,3.27
2018-05-10T05:44:21.745Z,3.53
2018-05-10T05:46:47.919Z,3.20
2018-05-10T05:49:14.857Z,2.77
2018-05-10T05:51:41.793Z,3.10
2018-05-10T05:54:07.991Z,3.40
2018-05-10T05:56:34.182Z,3.63
2018-05-10T05:59:01.115Z,3.47
2018-05-10T06:01:27.322Z,3.57
2018-05-10T06:03:53.513Z,4.10
2018-05-10T06:06:19.705Z,3.63
2018-05-10T06:08:46.004Z,3.70
2018-05-10T06:11:12.123Z,3.80
2018-05-10T06:13:38.306Z,3.60
2018-05-10T06:16:04.604Z,3.57
2018-05-10T06:18:30.730Z,3.47
2018-05-10T06:20:56.917Z,3.70
2018-05-10T06:23:23.870Z,3.47
2018-05-10T06:25:50.788Z,3.63
2018-05-10T06:28:16.971Z,3.33
2018-05-10T06:30:43.174Z,3.10
2018-05-10T06:33:09.345Z,3.30
2018-05-10T06:35:35.534Z,3.17
2018-05-10T06:38:01.733Z,3.50
2018-05-10T06:40:27.918Z,3.27
2018-05-10T06:42:54.870Z,3.10
2018-05-10T06:45:21.789Z,3.30
2018-05-10T06:47:48.046Z,3.03
2018-05-10T06:50:17.012Z,3.07
2018-05-10T06:52:43.656Z,3.10
2018-05-10T06:55:09.874Z,3.90
2018-05-10T06:57:36.054Z,3.00
2018-05-10T07:00:03.218Z,2.93
2018-05-10T07:02:30.142Z,3.50
2018-05-10T07:04:56.319Z,3.40
2018-05-10T07:07:22.518Z,3.30
2018-05-10T07:09:49.541Z,3.00
2018-05-10T07:12:15.641Z,3.27
2018-05-10T07:14:41.826Z,3.43
2018-05-10T07:17:08.030Z,3.20
2018-05-10T07:19:34.236Z,3.43
2018-05-10T07:22:00.419Z,3.50
2018-05-10T07:24:26.610Z,3.17
2018-05-10T07:26:52.790Z,3.37
2018-05-10T07:29:18.987Z,3.47
2018-05-10T07:31:45.166Z,3.27
2018-05-10T07:34:12.122Z,3.10
2018-05-10T07:36:39.044Z,3.10
2018-05-10T07:39:05.233Z,3.40
2018-05-10T07:41:31.417Z,3.10
2018-05-10T07:43:57.601Z,3.80
2018-05-10T07:46:23.823Z,3.40
2018-05-10T07:48:50.017Z,3.30
2018-05-10T07:51:16.194Z,3.40
2018-05-10T07:53:42.389Z,3.03
2018-05-10T07:56:09.327Z,3.50
2018-05-10T07:58:35.526Z,3.80
2018-05-10T08:01:01.739Z,3.60
2018-05-10T08:03:27.914Z,3.40
2018-05-10T08:05:54.097Z,3.00
2018-05-10T08:08:20.306Z,3.60
2018-05-10T08:10:47.245Z,3.57
2018-05-10T08:13:14.882Z,3.30
2018-05-10T08:15:41.050Z,3.30
2018-05-10T08:18:07.981Z,3.23
2018-05-10T08:20:34.178Z,3.43
2018-05-10T08:23:00.371Z,3.27
2018-05-10T08:25:27.315Z,3.20
2018-05-10T08:27:54.261Z,3.20
2018-05-10T08:30:22.012Z,3.33
2018-05-10T08:32:48.872Z,3.47
2018-05-10T08:35:15.052Z,3.33
2018-05-10T08:37:41.238Z,3.50
2018-05-10T08:40:07.431Z,3.23
2018-05-10T08:42:33.607Z,3.43
2018-05-10T08:45:01.352Z,3.00
2018-05-10T08:47:27.496Z,2.80
2018-05-10T08:49:53.666Z,3.30
2018-05-10T08:52:20.585Z,3.10
2018-05-10T08:54:46.858Z,3.03
2018-05-10T08:57:13.095Z,3.23
2018-05-10T08:59:39.272Z,3.07
2018-05-10T09:02:05.556Z,3.10
2018-05-10T09:04:31.749Z,3.20
2018-05-10T09:06:57.933Z,3.03
2018-05-10T09:09:24.135Z,3.13
2018-05-10T09:11:51.081Z,3.23
2018-05-10T09:14:18.000Z,3.00
2018-05-10T09:16:44.193Z,3.10
2018-05-10T09:19:10.368Z,3.00
2018-05-10T09:21:36.574Z,2.90
2018-05-10T09:24:02.938Z,3.30
2018-05-10T09:26:29.105Z,3.20
2018-05-10T09:28:56.047Z,3.27
2018-05-10T09:31:22.216Z,2.93
2018-05-10T09:33:48.439Z,3.20
2018-05-10T09:36:14.610Z,3.17
2018-05-10T09:38:40.794Z,3.10
2018-05-10T09:41:07.001Z,2.97
2018-05-10T09:43:33.181Z,2.80
2018-05-10T09:45:59.473Z,3.00
2018-05-10T09:48:25.659Z,3.13
2018-05-10T09:50:51.846Z,2.70
2018-05-10T09:53:18.778Z,2.90
2018-05-10T09:55:44.962Z,2.63
2018-05-10T09:58:11.478Z,2.80
2018-05-10T10:00:38.402Z,2.73
2018-05-10T10:03:04.618Z,3.00
2018-05-10T10:05:30.800Z,2.73
2018-05-10T10:07:57.002Z,2.70
2018-05-10T10:10:23.199Z,2.80
2018-05-10T10:12:49.402Z,2.63
2018-05-10T10:15:15.573Z,2.73
2018-05-10T10:17:42.538Z,3.30
2018-05-10T10:20:08.699Z,2.73
2018-05-10T10:22:35.645Z,2.80
2018-05-10T10:25:02.591Z,3.03
2018-05-10T10:27:29.563Z,3.10
2018-05-10T10:29:55.718Z,2.83
2018-05-10T10:32:21.969Z,2.90
2018-05-10T10:34:48.171Z,2.70
2018-05-10T10:37:14.345Z,2.90
2018-05-10T10:39:40.517Z,2.83
2018-05-10T10:42:06.771Z,3.00
2018-05-10T10:44:32.941Z,2.87
2018-05-10T10:46:59.113Z,3.10
2018-05-10T10:49:26.058Z,2.77
2018-05-10T10:51:52.974Z,2.87
2018-05-10T10:54:19.171Z,3.10
2018-05-10T10:56:45.364Z,3.03
2018-05-10T10:59:11.554Z,3.07
2018-05-10T11:01:37.880Z,3.13
2018-05-10T11:04:04.305Z,3.27
2018-05-10T11:06:30.480Z,3.63
2018-05-10T11:08:56.678Z,3.43
2018-05-10T11:11:22.857Z,4.00
2018-05-10T11:13:49.050Z,3.50
2018-05-10T11:16:15.225Z,3.87
2018-05-10T11:18:41.401Z,3.47
2018-05-10T11:21:07.619Z,3.90
2018-05-10T11:23:34.545Z,3.93
2018-05-10T11:26:00.743Z,4.17
2018-05-10T11:28:26.933Z,3.77
2018-05-10T11:30:53.862Z,4.20
2018-05-10T11:33:20.100Z,4.10
2018-05-10T11:35:46.249Z,4.03
2018-05-10T11:38:13.184Z,4.03
2018-05-10T11:40:39.349Z,4.20
2018-05-10T11:43:05.553Z,4.10
2018-05-10T11:45:31.781Z,4.27
2018-05-10T11:47:57.975Z,4.27
2018-05-10T11:50:24.186Z,4.73
2018-05-10T11:52:50.365Z,4.10
2018-05-10T11:55:16.547Z,4.77
2018-05-10T11:57:42.742Z,4.87
2018-05-10T12:00:08.915Z,4.80
2018-05-10T12:02:35.149Z,4.80
2018-05-10T12:05:01.600Z,4.97
2018-05-10T12:07:27.782Z,4.77
2018-05-10T12:09:54.719Z,5.63
2018-05-10T12:12:20.909Z,5.30
2018-05-10T12:14:47.303Z,5.50
2018-05-10T12:17:13.474Z,5.37
2018-05-10T12:19:39.654Z,5.07
2018-05-10T12:22:05.855Z,5.30
2018-05-10T12:24:32.043Z,4.73
2018-05-10T12:26:58.972Z,4.83
2018-05-10T12:29:25.147Z,4.70
2018-05-10T12:31:51.320Z,5.20
2018-05-10T12:34:17.525Z,4.50
2018-05-10T12:36:43.700Z,5.07
2018-05-10T12:39:09.920Z,4.67
2018-05-10T12:41:36.145Z,4.20
2018-05-10T12:44:02.298Z,4.20
2018-05-10T12:46:28.505Z,3.60
2018-05-10T12:48:54.680Z,4.40
2018-05-10T12:51:21.630Z,4.03
2018-05-10T12:53:48.567Z,5.10
2018-05-10T12:56:14.771Z,4.63
2018-05-10T12:58:40.983Z,4.10
2018-05-10T13:01:07.184Z,4.00
2018-05-10T13:03:34.158Z,4.07
2018-05-10T13:06:00.350Z,3.80
2018-05-10T13:08:26.641Z,3.53
2018-05-10T13:10:52.759Z,3.63
2018-05-10T13:13:18.962Z,3.50
2018-05-10T13:15:45.188Z,3.80
2018-05-10T13:18:11.342Z,3.70
2018-05-10T13:20:38.258Z,3.60
2018-05-10T13:23:04.419Z,3.60
2018-05-10T13:25:31.360Z,3.27
2018-05-10T13:27:58.294Z,3.20
2018-05-10T13:30:24.521Z,3.37
2018-05-10T13:32:50.732Z,3.30
2018-05-10T13:35:16.905Z,2.83
2018-05-10T13:37:43.818Z,2.63
2018-05-10T13:40:10.006Z,2.60
2018-05-10T13:42:36.189Z,2.77
2018-05-10T13:45:02.408Z,2.60
2018-05-10T13:47:28.667Z,2.57
2018-05-10T13:49:54.823Z,2.57
2018-05-10T13:52:21.771Z,2.83
2018-05-10T13:54:48.701Z,2.60
2018-05-10T13:57:14.889Z,2.60
2018-05-10T13:59:41.063Z,2.50
2018-05-10T14:02:07.273Z,2.47
2018-05-10T14:04:33.566Z,2.37
2018-05-10T14:06:59.686Z,2.40
2018-05-10T14:09:26.644Z,2.10
2018-05-10T14:11:52.850Z,2.40
2018-05-10T14:14:19.056Z,2.17
2018-05-10T14:16:45.218Z,2.53
2018-05-10T14:19:11.394Z,2.40
2018-05-10T14:21:37.581Z,2.40
2018-05-10T14:24:03.754Z,2.33
2018-05-10T14:26:30.015Z,2.30
2018-05-10T14:28:56.201Z,2.40
2018-05-10T14:31:23.129Z,2.50
2018-05-10T14:33:49.334Z,2.73
2018-05-10T14:36:15.513Z,2.60
2018-05-10T14:38:42.429Z,2.73
2018-05-10T14:41:08.624Z,3.03
2018-05-10T14:43:34.834Z,2.50
2018-05-10T14:46:01.049Z,2.80
2018-05-10T14:48:27.972Z,2.83
2018-05-10T14:50:54.174Z,3.30
2018-05-10T14:53:20.359Z,3.00
2018-05-10T14:55:46.548Z,3.37
2018-05-10T14:58:12.734Z,3.20
2018-05-10T15:00:38.932Z,3.37
2018-05-10T15:03:05.157Z,4.00
2018-05-10T15:05:31.342Z,3.70
2018-05-10T15:07:58.277Z,3.53
2018-05-10T15:10:24.523Z,3.47
2018-05-10T15:12:51.457Z,4.03
2018-05-10T15:15:17.645Z,3.50
2018-05-10T15:17:43.845Z,3.43
2018-05-10T15:20:10.753Z,3.70
2018-05-10T15:22:37.689Z,3.40
2018-05-10T15:25:03.885Z,3.70
2018-05-10T15:27:30.086Z,3.57
2018-05-10T15:29:56.274Z,3.40
2018-05-10T15:32:22.447Z,3.73
2018-05-10T15:34:48.673Z,3.30
2018-05-10T15:37:14.862Z,3.77
2018-05-10T15:39:41.067Z,3.70
2018-05-10T15:42:07.969Z,3.70
2018-05-10T15:44:34.158Z,3.10
2018-05-10T15:47:00.348Z,3.80
2018-05-10T15:49:26.546Z,3.47
2018-05-10T15:51:52.812Z,3.60
2018-05-10T15:54:18.941Z,3.70
2018-05-10T15:56:45.139Z,6.63
2018-05-10T15:59:11.345Z,3.83
2018-05-10T16:01:38.291Z,3.67
2018-05-10T16:04:05.234Z,3.73
2018-05-10T16:06:31.426Z,3.83
2018-05-10T16:08:57.638Z,6.47
2018-05-10T16:11:23.869Z,4.17
2018-05-10T16:13:50.071Z,3.77
2018-05-10T16:16:16.977Z,3.53
2018-05-10T16:18:43.184Z,4.37
2018-05-10T16:21:09.357Z,3.60
2018-05-10T16:23:35.529Z,3.40
2018-05-10T16:26:02.456Z,4.27
2018-05-10T16:28:28.627Z,3.90
2018-05-10T16:30:54.825Z,3.03
2018-05-10T16:33:21.025Z,3.67
2018-05-10T16:35:47.200Z,3.37
2018-05-10T16:38:14.130Z,3.70
2018-05-10T16:40:40.321Z,3.67
2018-05-10T16:43:06.676Z,3.40
2018-05-10T16:45:32.844Z,3.53
2018-05-10T16:47:59.037Z,4.10
2018-05-10T16:50:25.244Z,3.40
2018-05-10T16:52:51.431Z,3.60
2018-05-10T16:55:17.631Z,3.33
2018-05-10T16:57:43.812Z,3.57
2018-05-10T17:00:10.751Z,3.50
2018-05-10T17:02:36.937Z,3.77
2018-05-10T17:05:03.134Z,3.93
2018-05-10T17:07:30.058Z,3.60
2018-05-10T17:09:56.246Z,3.77
2018-05-10T17:12:22.442Z,3.40
2018-05-10T17:14:49.370Z,3.57
2018-05-10T17:17:15.584Z,3.50
2018-05-10T17:19:41.777Z,3.37
2018-05-10T17:22:07.962Z,3.90
2018-05-10T17:24:34.186Z,3.40
2018-05-10T17:27:00.391Z,3.50
2018-05-10T17:29:26.588Z,3.37
2018-05-10T17:31:53.494Z,3.57
2018-05-10T17:34:19.703Z,3.43
2018-05-10T17:36:45.878Z,3.70
2018-05-10T17:39:12.058Z,3.50
2018-05-10T17:41:38.243Z,3.43
2018-05-10T17:44:04.463Z,3.77
2018-05-10T17:46:30.675Z,3.70
2018-05-10T17:48:56.849Z,3.90
2018-05-10T17:51:23.086Z,3.37
2018-05-10T17:53:50.030Z,3.27
2018-05-10T17:56:16.957Z,3.67
2018-05-10T17:58:43.182Z,3.80
2018-05-10T18:01:09.460Z,3.70
2018-05-10T18:03:35.590Z,3.50
2018-05-10T18:06:01.778Z,3.70
2018-05-10T18:08:27.962Z,4.03
2018-05-10T18:10:54.896Z,3.87
2018-05-10T18:13:21.130Z,3.67
2018-05-10T18:15:48.066Z,4.00
2018-05-10T18:18:14.267Z,3.80
2018-05-10T18:20:40.458Z,3.90
2018-05-10T18:23:07.405Z,3.70
2018-05-10T18:25:34.360Z,3.73
2018-05-10T18:28:01.298Z,3.50
2018-05-10T18:30:27.495Z,3.90
2018-05-10T18:32:53.715Z,3.60
2018-05-10T18:35:20.637Z,3.60
2018-05-10T18:37:47.554Z,3.60
2018-05-10T18:40:13.749Z,3.50
2018-05-10T18:42:39.918Z,3.70
2018-05-10T18:45:06.102Z,3.50
2018-05-10T18:47:32.278Z,3.53
2018-05-10T18:49:58.498Z,3.50
2018-05-10T18:52:24.688Z,4.10
2018-05-10T18:54:50.923Z,3.43
2018-05-10T18:57:17.064Z,4.00
2018-05-10T18:59:43.260Z,3.33
2018-05-10T19:02:09.437Z,3.73
2018-05-10T19:04:35.644Z,3.30
2018-05-10T19:07:02.585Z,3.30
2018-05-10T19:09:29.541Z,3.77
2018-05-10T19:11:56.469Z,3.67
2018-05-10T19:14:22.652Z,4.00
2018-05-10T19:16:48.855Z,3.67
2018-05-10T19:19:15.046Z,4.10
2018-05-10T19:21:41.272Z,3.83
2018-05-10T19:24:07.453Z,3.90
2018-05-10T19:26:34.500Z,3.70
2018-05-10T19:29:00.605Z,4.13
2018-05-10T19:31:26.800Z,3.67
2018-05-10T19:33:53.002Z,4.07
2018-05-10T19:36:19.909Z,3.50
2018-05-10T19:38:46.118Z,3.93
2018-05-10T19:41:12.302Z,4.40
2018-05-10T19:43:38.526Z,3.93
2018-05-10T19:46:06.177Z,4.30
2018-05-10T19:48:32.374Z,4.10
2018-05-10T19:50:58.568Z,3.90
2018-05-10T19:53:24.825Z,4.30
2018-05-10T19:55:51.033Z,4.17
2018-05-10T19:58:17.205Z,4.07
2018-05-10T20:00:43.377Z,4.40
2018-05-10T20:03:09.573Z,4.10
2018-05-10T20:05:35.762Z,4.53
2018-05-10T20:08:01.965Z,4.70
2018-05-10T20:10:28.138Z,4.50
2018-05-10T20:12:55.084Z,3.87
2018-05-10T20:15:22.069Z,4.57
2018-05-10T20:17:48.260Z,4.60
2018-05-10T20:20:14.490Z,4.20
2018-05-10T20:22:40.666Z,4.80
2018-05-10T20:25:06.833Z,4.33
2018-05-10T20:27:33.017Z,4.80
2018-05-10T20:29:59.201Z,4.30
2018-05-10T20:32:25.423Z,4.67
2018-05-10T20:34:51.630Z,4.90
2018-05-10T20:37:17.838Z,5.10
2018-05-10T20:39:44.777Z,5.20
2018-05-10T20:42:11.706Z,4.77
2018-05-10T20:44:37.995Z,4.43
2018-05-10T20:47:04.904Z,4.73
2018-05-10T20:49:31.094Z,5.00
2018-05-10T20:51:57.292Z,5.10
2018-05-10T20:54:24.217Z,4.60
2018-05-10T20:56:51.155Z,4.83
2018-05-10T20:59:17.363Z,4.57
2018-05-10T21:01:43.546Z,5.13
2018-05-10T21:04:10.563Z,5.00
2018-05-10T21:06:37.414Z,5.20
2018-05-10T21:09:03.625Z,4.77
2018-05-10T21:11:29.813Z,4.60
2018-05-10T21:13:56.754Z,4.50
2018-05-10T21:16:23.001Z,4.50
2018-05-10T21:18:49.163Z,5.10
2018-05-10T21:21:15.381Z,4.67
2018-05-10T21:23:41.571Z,4.73
2018-05-10T21:26:07.838Z,5.30
2018-05-10T21:28:33.962Z,5.10
2018-05-10T21:31:00.979Z,4.67
2018-05-10T21:33:27.870Z,4.73
2018-05-10T21:35:54.049Z,5.63
2018-05-10T21:38:20.248Z,4.53
2018-05-10T21:40:46.446Z,4.40
2018-05-10T21:43:13.379Z,5.30
2018-05-10T21:45:39.572Z,4.70
2018-05-10T21:48:05.760Z,4.93
2018-05-10T21:50:32.682Z,5.07
2018-05-10T21:52:58.913Z,4.60
2018-05-10T21:55:25.118Z,5.30
2018-05-10T21:57:51.330Z,5.13
2018-05-10T22:00:18.270Z,5.50
2018-05-10T22:02:45.203Z,5.60
2018-05-10T22:05:11.385Z,5.60
2018-05-10T22:07:37.572Z,5.57
2018-05-10T22:10:03.781Z,6.07
2018-05-10T22:12:29.966Z,5.70
2018-05-10T22:14:56.158Z,5.80
2018-05-10T22:17:22.370Z,5.80
2018-05-10T22:19:48.577Z,5.70
2018-05-10T22:22:14.766Z,5.50
2018-05-10T22:24:40.990Z,5.50
2018-05-10T22:27:07.178Z,6.27
2018-05-10T22:29:33.358Z,6.27
2018-05-10T22:31:59.551Z,5.70
2018-05-10T22:34:25.730Z,5.67
2018-05-10T22:36:53.427Z,5.80
2018-05-10T22:39:19.653Z,5.87
2018-05-10T22:41:46.581Z,5.70
2018-05-10T22:44:12.830Z,5.83
2018-05-10T22:46:39.000Z,5.80
2018-05-10T22:49:05.202Z,6.10
2018-05-10T22:51:32.121Z,6.33
2018-05-10T22:53:58.310Z,5.43
2018-05-10T22:56:24.502Z,5.87
2018-05-10T22:58:51.481Z,6.00
2018-05-10T23:01:17.698Z,5.70
2018-05-10T23:03:44.631Z,6.00
2018-05-10T23:06:10.889Z,5.63
2018-05-10T23:08:37.026Z,5.97
2018-05-10T23:11:03.222Z,5.40
2018-05-10T23:13:29.753Z,6.50
2018-05-10T23:15:55.932Z,6.30
2018-05-10T23:18:22.109Z,6.03
2018-05-10T23:20:48.293Z,6.07
2018-05-10T23:23:15.205Z,6.10
2018-05-10T23:25:41.423Z,6.30
2018-05-10T23:28:07.635Z,6.53
2018-05-10T23:30:33.812Z,6.27
2018-05-10T23:33:00.008Z,6.13
2018-05-10T23:35:26.198Z,6.47
2018-05-10T23:37:53.154Z,6.73
2018-05-10T23:40:19.328Z,7.00
2018-05-10T23:42:45.518Z,6.87
2018-05-10T23:45:11.716Z,7.17
2018-05-10T23:47:37.902Z,6.77
2018-05-10T23:50:04.117Z,7.70
2018-05-10T23:52:31.043Z,7.37
2018-05-10T23:54:57.242Z,7.40
2018-05-10T23:57:23.438Z,6.77
2018-05-10T23:59:49.613Z,6.77
